RJTH(METAR)
01/24 08:00
RJTH 232300Z 20003KT 9999 FEW018 BKNXXX 15/14 Q1021 RMK A3017=
戻る
トップページへ戻る
IMOC Co,.Ltd.